createdAt,value
2024-05-09T00:00:46.572Z,6.95
2024-05-09T00:03:14.503Z,8.30
2024-05-09T00:05:42.791Z,8.07
2024-05-09T00:08:11.300Z,7.68
2024-05-09T00:10:40.664Z,7.30
2024-05-09T00:13:09.980Z,8.40
2024-05-09T00:15:38.197Z,8.05
2024-05-09T00:18:07.457Z,8.20
2024-05-09T00:20:39.501Z,8.32
2024-05-09T00:23:11.639Z,7.80
2024-05-09T00:25:40.554Z,8.25
2024-05-09T00:28:08.261Z,8.38
2024-05-09T00:30:37.197Z,8.18
2024-05-09T00:33:07.257Z,8.75
2024-05-09T00:35:36.288Z,8.37
2024-05-09T00:38:04.592Z,7.95
2024-05-09T00:40:40.001Z,8.15
2024-05-09T00:43:11.089Z,8.90
2024-05-09T00:45:39.182Z,8.85
2024-05-09T00:48:08.793Z,9.40
2024-05-09T00:50:38.972Z,8.73
2024-05-09T00:53:07.165Z,9.30
2024-05-09T00:55:35.813Z,8.38
2024-05-09T00:58:04.007Z,8.85
2024-05-09T01:00:38.342Z,9.00
2024-05-09T01:03:09.582Z,8.40
2024-05-09T01:05:39.774Z,7.97
2024-05-09T01:08:08.243Z,9.52
2024-05-09T01:10:36.804Z,9.07
2024-05-09T01:13:05.123Z,8.90
2024-05-09T01:15:33.581Z,9.88
2024-05-09T01:18:02.210Z,9.50
2024-05-09T01:20:39.663Z,9.82
2024-05-09T01:23:11.176Z,9.25
2024-05-09T01:25:39.089Z,10.27
2024-05-09T01:28:07.231Z,9.82
2024-05-09T01:30:37.187Z,9.60
2024-05-09T01:33:07.762Z,10.65
2024-05-09T01:35:37.441Z,10.30
2024-05-09T01:38:05.591Z,9.13
2024-05-09T01:40:37.949Z,9.95
2024-05-09T01:43:09.365Z,9.93
2024-05-09T01:45:38.599Z,9.90
2024-05-09T01:48:06.839Z,10.45
2024-05-09T01:50:39.538Z,9.93
2024-05-09T01:53:10.867Z,9.30
2024-05-09T01:55:38.805Z,9.50
2024-05-09T01:58:07.323Z,9.55
2024-05-09T02:00:40.090Z,10.07
2024-05-09T02:03:12.349Z,8.63
2024-05-09T02:05:43.165Z,10.85
2024-05-09T02:08:18.106Z,10.57
2024-05-09T02:10:47.268Z,10.35
2024-05-09T02:13:15.923Z,10.15
2024-05-09T02:15:44.064Z,9.67
2024-05-09T02:18:12.419Z,9.95
2024-05-09T02:20:43.987Z,9.60
2024-05-09T02:23:12.370Z,9.98
2024-05-09T02:25:40.554Z,9.15
2024-05-09T02:28:08.527Z,9.60
2024-05-09T02:30:40.499Z,10.15
2024-05-09T02:33:12.163Z,9.77
2024-05-09T02:35:42.199Z,9.93
2024-05-09T02:38:10.572Z,10.05
2024-05-09T02:40:39.786Z,9.70
2024-05-09T02:43:10.015Z,9.10
2024-05-09T02:45:39.430Z,9.55
2024-05-09T02:48:07.911Z,9.27
2024-05-09T02:50:39.150Z,9.25
2024-05-09T02:53:16.903Z,9.20
2024-05-09T02:55:44.687Z,9.27
2024-05-09T02:58:12.638Z,9.82
2024-05-09T03:00:42.277Z,9.75
2024-05-09T03:03:13.383Z,10.27
2024-05-09T03:05:43.890Z,10.17
2024-05-09T03:08:11.965Z,9.38
2024-05-09T03:10:40.000Z,9.77
2024-05-09T03:13:08.381Z,9.70
2024-05-09T03:15:36.284Z,9.73
2024-05-09T03:18:04.543Z,10.73
2024-05-09T03:20:35.042Z,9.90
2024-05-09T03:23:05.039Z,9.80
2024-05-09T03:25:33.487Z,11.18
2024-05-09T03:28:01.423Z,10.48
2024-05-09T03:30:36.286Z,10.97
2024-05-09T03:33:13.809Z,9.93
2024-05-09T03:35:42.558Z,9.90
2024-05-09T03:38:10.382Z,9.50
2024-05-09T03:40:44.520Z,10.20
2024-05-09T03:43:12.225Z,10.03
2024-05-09T03:45:39.866Z,9.82
2024-05-09T03:48:08.248Z,9.95
2024-05-09T03:50:37.115Z,9.88
2024-05-09T03:53:05.487Z,9.35
2024-05-09T03:55:33.215Z,9.67
2024-05-09T03:58:00.920Z,9.52
2024-05-09T04:00:35.811Z,10.27
2024-05-09T04:03:09.064Z,10.25
2024-05-09T04:05:40.598Z,9.48
2024-05-09T04:08:09.864Z,9.77
2024-05-09T04:10:37.925Z,10.02
2024-05-09T04:13:05.859Z,9.52
2024-05-09T04:15:33.671Z,10.15
2024-05-09T04:18:02.166Z,10.38
2024-05-09T04:20:37.663Z,9.80
2024-05-09T04:23:09.448Z,9.88
2024-05-09T04:25:37.964Z,9.95
2024-05-09T04:28:05.929Z,11.05
2024-05-09T04:30:38.514Z,11.27
2024-05-09T04:33:11.062Z,11.30
2024-05-09T04:35:42.177Z,10.77
2024-05-09T04:38:10.333Z,10.85
2024-05-09T04:40:38.402Z,11.18
2024-05-09T04:43:07.194Z,11.63
2024-05-09T04:45:35.819Z,11.23
2024-05-09T04:48:04.019Z,11.95
2024-05-09T04:50:36.995Z,11.75
2024-05-09T04:53:08.138Z,12.18
2024-05-09T04:55:37.364Z,12.57
2024-05-09T04:58:05.758Z,12.27
2024-05-09T05:00:37.195Z,12.38
2024-05-09T05:03:09.063Z,13.82
2024-05-09T05:05:40.788Z,13.10
2024-05-09T05:08:12.762Z,12.00
2024-05-09T05:10:40.878Z,13.40
2024-05-09T05:13:22.847Z,13.02
2024-05-09T05:15:53.481Z,13.52
2024-05-09T05:18:22.251Z,12.90
2024-05-09T05:20:50.270Z,14.02
2024-05-09T05:23:21.260Z,13.60
2024-05-09T05:25:49.810Z,12.98
2024-05-09T05:28:17.845Z,13.63
2024-05-09T05:30:45.998Z,13.80
2024-05-09T05:33:14.717Z,15.80
2024-05-09T05:35:43.393Z,14.37
2024-05-09T05:38:11.514Z,13.82
2024-05-09T05:40:40.524Z,14.07
2024-05-09T05:43:17.429Z,13.50
2024-05-09T05:45:45.420Z,12.90
2024-05-09T05:48:14.147Z,12.83
2024-05-09T05:50:42.116Z,12.73
2024-05-09T05:53:10.920Z,12.70
2024-05-09T05:55:39.730Z,14.40
2024-05-09T05:58:11.194Z,13.05
2024-05-09T06:00:40.660Z,12.57
2024-05-09T06:03:10.361Z,12.63
2024-05-09T06:05:46.549Z,10.38
2024-05-09T06:08:14.787Z,11.98
2024-05-09T06:10:42.865Z,9.80
2024-05-09T06:13:11.603Z,9.87
2024-05-09T06:15:40.368Z,10.02
2024-05-09T06:18:09.126Z,9.32
2024-05-09T06:20:39.499Z,7.07
2024-05-09T06:23:07.817Z,8.10
2024-05-09T06:25:36.337Z,9.23
2024-05-09T06:28:04.441Z,8.10
2024-05-09T06:30:38.778Z,9.00
2024-05-09T06:33:10.775Z,7.80
2024-05-09T06:35:40.614Z,9.75
2024-05-09T06:38:09.384Z,9.20
2024-05-09T06:40:40.203Z,4.75
2024-05-09T06:43:12.990Z,8.30
2024-05-09T06:45:40.944Z,8.18
2024-05-09T06:48:11.993Z,7.68
2024-05-09T06:50:40.736Z,5.50
2024-05-09T06:53:09.226Z,7.65
2024-05-09T06:55:37.990Z,8.52
2024-05-09T06:58:06.398Z,7.75
2024-05-09T07:00:39.168Z,7.85
2024-05-09T07:03:09.721Z,8.17
2024-05-09T07:05:37.971Z,7.63
2024-05-09T07:08:05.881Z,7.20
2024-05-09T07:10:35.579Z,6.75
2024-05-09T07:13:04.143Z,6.55
2024-05-09T07:15:31.798Z,7.40
2024-05-09T07:17:59.532Z,7.63
2024-05-09T07:20:34.015Z,7.35
2024-05-09T07:23:05.676Z,6.85
2024-05-09T07:25:33.363Z,6.88
2024-05-09T07:28:00.998Z,7.37
2024-05-09T07:30:33.441Z,6.30
2024-05-09T07:33:03.121Z,6.60
2024-05-09T07:35:31.570Z,6.95
2024-05-09T07:37:59.991Z,6.13
2024-05-09T07:40:35.136Z,7.03
2024-05-09T07:43:08.488Z,7.43
2024-05-09T07:53:37.004Z,6.00
2024-05-09T07:55:57.410Z,6.88
2024-05-09T07:58:27.780Z,6.57
2024-05-09T08:00:55.700Z,6.93
2024-05-09T08:03:24.022Z,7.47
2024-05-09T08:05:52.182Z,6.53
2024-05-09T08:08:19.886Z,6.78
2024-05-09T08:10:47.612Z,7.15
2024-05-09T08:13:15.380Z,6.85
2024-05-09T08:15:43.096Z,6.75
2024-05-09T08:18:11.249Z,6.50
2024-05-09T08:20:39.444Z,6.80
2024-05-09T08:23:07.293Z,6.47
2024-05-09T08:25:34.979Z,6.38
2024-05-09T08:28:04.447Z,6.15
2024-05-09T08:30:36.918Z,6.60
2024-05-09T08:33:06.864Z,5.88
2024-05-09T08:35:35.732Z,6.72
2024-05-09T08:38:04.502Z,6.28
2024-05-09T08:40:35.856Z,5.90
2024-05-09T08:43:10.503Z,7.47
2024-05-09T08:45:42.398Z,6.00
2024-05-09T08:48:12.707Z,6.20
2024-05-09T08:50:41.453Z,4.82
2024-05-09T08:53:09.551Z,6.13
2024-05-09T08:55:41.554Z,6.60
2024-05-09T08:58:16.186Z,5.40
2024-05-09T09:00:45.300Z,5.88
2024-05-09T09:03:16.239Z,6.50
2024-05-09T09:05:49.564Z,5.95
2024-05-09T09:08:17.228Z,6.60
2024-05-09T09:10:45.458Z,5.95
2024-05-09T09:13:13.260Z,6.65
2024-05-09T09:15:50.620Z,5.05
2024-05-09T09:18:19.117Z,7.80
2024-05-09T09:20:47.602Z,8.83
2024-05-09T09:23:15.326Z,9.93
2024-05-09T09:25:43.178Z,8.65
2024-05-09T09:28:10.999Z,9.93
2024-05-09T09:30:42.248Z,10.15
2024-05-09T09:33:10.766Z,10.33
2024-05-09T09:35:40.330Z,9.02
2024-05-09T09:38:09.907Z,10.10
2024-05-09T09:40:43.163Z,8.82
2024-05-09T09:43:17.136Z,8.10
2024-05-09T09:45:44.932Z,7.80
2024-05-09T09:48:15.373Z,8.25
2024-05-09T09:50:43.213Z,8.02
2024-05-09T09:53:11.124Z,7.55
2024-05-09T09:55:40.429Z,7.45
2024-05-09T09:58:10.856Z,7.70
2024-05-09T10:00:40.024Z,10.40
2024-05-09T10:03:07.868Z,9.80
2024-05-09T10:05:35.826Z,9.35
2024-05-09T10:08:04.852Z,8.90
2024-05-09T10:10:33.820Z,9.63
2024-05-09T10:13:05.016Z,10.05
2024-05-09T10:15:46.102Z,9.73
2024-05-09T10:18:14.615Z,7.25
2024-05-09T10:20:43.028Z,7.90
2024-05-09T10:23:29.727Z,11.37
2024-05-09T10:26:06.706Z,11.38
2024-05-09T10:28:35.921Z,10.52
2024-05-09T10:31:09.753Z,8.80
2024-05-09T10:33:45.660Z,8.50
2024-05-09T10:36:20.266Z,8.30
2024-05-09T10:38:49.065Z,8.05
2024-05-09T10:41:17.291Z,7.22
2024-05-09T10:43:44.938Z,7.80
2024-05-09T10:46:13.475Z,7.38
2024-05-09T10:48:42.754Z,7.90
2024-05-09T10:51:10.765Z,8.10
2024-05-09T10:53:42.439Z,8.13
2024-05-09T10:56:10.411Z,7.57
2024-05-09T10:58:38.066Z,9.73
2024-05-09T11:01:07.378Z,8.70
2024-05-09T11:03:36.116Z,8.52
2024-05-09T11:06:04.311Z,7.65
2024-05-09T11:08:32.822Z,8.20
2024-05-09T11:11:02.811Z,9.68
2024-05-09T11:13:31.432Z,10.47
2024-05-09T11:16:00.128Z,8.20
2024-05-09T11:18:31.724Z,9.48
2024-05-09T11:21:02.626Z,10.77
2024-05-09T11:23:30.889Z,10.10
2024-05-09T11:25:59.323Z,10.97
2024-05-09T11:28:28.698Z,10.70
2024-05-09T11:31:05.529Z,13.00
2024-05-09T11:33:33.537Z,12.02
2024-05-09T11:36:01.243Z,10.20
2024-05-09T11:38:29.748Z,10.63
2024-05-09T11:40:57.412Z,10.93
2024-05-09T11:43:25.143Z,11.43
2024-05-09T11:45:52.879Z,11.65
2024-05-09T11:48:20.728Z,10.95
2024-05-09T11:50:48.476Z,10.40
2024-05-09T11:53:16.153Z,10.73
2024-05-09T11:55:43.838Z,10.98
2024-05-09T11:58:13.997Z,10.52
2024-05-09T12:00:41.736Z,10.02
2024-05-09T12:03:09.465Z,10.07
2024-05-09T12:05:37.186Z,10.50
2024-05-09T12:08:05.019Z,9.88
2024-05-09T12:10:35.270Z,8.55
2024-05-09T12:13:06.189Z,8.75
2024-05-09T12:15:39.090Z,9.13
2024-05-09T12:18:08.309Z,8.68
2024-05-09T12:20:39.125Z,9.48
2024-05-09T12:23:10.189Z,10.43
2024-05-09T12:25:39.674Z,9.52
2024-05-09T12:28:08.337Z,9.93
2024-05-09T12:30:40.824Z,9.93
2024-05-09T12:33:11.843Z,11.13
2024-05-09T12:35:41.075Z,11.00
2024-05-09T12:38:09.990Z,10.60
2024-05-09T12:40:39.083Z,10.73
2024-05-09T12:43:08.881Z,10.63
2024-05-09T12:45:38.128Z,12.75
2024-05-09T12:48:08.357Z,14.18
2024-05-09T12:50:37.066Z,12.52
2024-05-09T12:53:05.459Z,14.27
2024-05-09T12:55:40.658Z,13.68
2024-05-09T12:58:16.745Z,11.60
2024-05-09T13:00:45.491Z,15.48
2024-05-09T13:03:13.555Z,14.32
2024-05-09T13:05:42.017Z,13.40
2024-05-09T13:08:09.864Z,13.45
2024-05-09T13:10:37.632Z,12.43
2024-05-09T13:13:05.632Z,13.95
2024-05-09T13:15:37.297Z,12.23
2024-05-09T13:18:05.780Z,12.63
2024-05-09T13:20:35.595Z,13.82
2024-05-09T13:23:05.437Z,13.75
2024-05-09T13:25:34.843Z,13.02
2024-05-09T13:28:03.206Z,17.95
2024-05-09T13:30:39.150Z,12.37
2024-05-09T13:33:13.356Z,14.80
2024-05-09T13:35:48.779Z,16.50
2024-05-09T13:38:19.158Z,14.10
2024-05-09T13:40:47.796Z,12.90
2024-05-09T13:43:16.097Z,11.00
2024-05-09T13:45:44.150Z,10.82
2024-05-09T13:48:12.091Z,10.80
2024-05-09T13:50:39.947Z,11.32
2024-05-09T13:53:08.659Z,11.27
2024-05-09T13:55:38.502Z,11.13
2024-05-09T13:58:06.963Z,11.13
2024-05-09T14:03:05.595Z,12.57
2024-05-09T14:05:33.640Z,11.68
2024-05-09T14:08:01.592Z,10.63
2024-05-09T14:10:31.641Z,9.77
2024-05-09T14:13:01.289Z,10.23
2024-05-09T14:15:29.267Z,11.48
2024-05-09T14:17:57.110Z,12.48
2024-05-09T14:20:31.002Z,12.53
2024-05-09T14:23:00.914Z,12.15
2024-05-09T14:25:29.208Z,11.60
2024-05-09T14:27:58.547Z,14.95
2024-05-09T14:30:34.535Z,13.73
2024-05-09T14:33:06.517Z,13.93
2024-05-09T14:35:35.118Z,13.75
2024-05-09T14:38:03.055Z,15.38
2024-05-09T14:40:40.279Z,12.68
2024-05-09T14:43:12.851Z,15.73
2024-05-09T14:45:41.471Z,12.40
2024-05-09T14:48:10.012Z,13.75
2024-05-09T14:50:39.823Z,14.82
2024-05-09T14:53:09.078Z,16.23
2024-05-09T14:55:37.844Z,17.02
2024-05-09T14:58:09.844Z,19.90
2024-05-09T15:00:41.488Z,20.65
2024-05-09T15:03:12.423Z,18.23
2024-05-09T15:05:40.774Z,20.95
2024-05-09T15:08:08.857Z,21.35
2024-05-09T15:10:37.562Z,22.90
2024-05-09T15:13:07.956Z,20.13
2024-05-09T15:15:37.777Z,20.95
2024-05-09T15:18:06.367Z,19.85
2024-05-09T15:20:36.735Z,21.48
2024-05-09T15:23:07.410Z,20.40
2024-05-09T15:25:36.251Z,20.90
2024-05-09T15:28:05.012Z,22.08
2024-05-09T15:30:34.258Z,20.17
2024-05-09T15:33:07.119Z,21.00
2024-05-09T15:35:36.235Z,20.00
2024-05-09T15:38:04.592Z,21.63
2024-05-09T15:40:39.115Z,22.35
2024-05-09T15:43:10.767Z,19.58
2024-05-09T15:45:40.440Z,22.05
2024-05-09T15:48:09.177Z,22.37
2024-05-09T15:50:40.808Z,24.33
2024-05-09T15:53:11.385Z,22.50
2024-05-09T15:55:39.859Z,23.33
2024-05-09T15:58:07.914Z,23.88
2024-05-09T16:00:39.880Z,21.53
2024-05-09T16:03:11.505Z,23.70
2024-05-09T16:05:41.041Z,25.27
2024-05-09T16:08:09.309Z,23.17
2024-05-09T16:10:42.444Z,23.02
2024-05-09T16:13:12.185Z,21.33
2024-05-09T16:15:40.236Z,22.48
2024-05-09T16:18:08.235Z,23.45
2024-05-09T16:20:40.209Z,19.95
2024-05-09T16:23:10.375Z,19.58
2024-05-09T16:25:38.213Z,20.13
2024-05-09T16:28:09.743Z,19.27
2024-05-09T16:30:41.653Z,18.30
2024-05-09T16:33:10.892Z,21.17
2024-05-09T16:35:39.449Z,26.35
2024-05-09T16:38:07.390Z,25.40
2024-05-09T16:40:39.282Z,16.95
2024-05-09T16:43:13.027Z,19.50
2024-05-09T16:45:43.780Z,16.63
2024-05-09T16:48:12.268Z,16.73
2024-05-09T16:50:40.099Z,20.20
2024-05-09T16:53:08.454Z,17.58
2024-05-09T16:55:36.598Z,18.00
2024-05-09T16:58:05.171Z,15.18
2024-05-09T17:00:40.438Z,18.90
2024-05-09T17:03:12.337Z,14.00
2024-05-09T17:05:41.297Z,14.10
2024-05-09T17:08:09.419Z,15.35
2024-05-09T17:10:37.431Z,15.10
2024-05-09T17:13:07.045Z,14.25
2024-05-09T17:15:37.092Z,12.67
2024-05-09T17:18:06.702Z,12.95
2024-05-09T17:20:36.897Z,13.68
2024-05-09T17:23:12.616Z,12.68
2024-05-09T17:25:41.311Z,12.95
2024-05-09T17:28:09.672Z,12.33
2024-05-09T17:30:39.480Z,11.90
2024-05-09T17:33:10.285Z,12.07
2024-05-09T17:35:38.986Z,12.32
2024-05-09T17:38:07.142Z,9.73
2024-05-09T17:40:37.213Z,9.93
2024-05-09T17:43:08.440Z,9.50
2024-05-09T17:45:38.552Z,8.77
2024-05-09T17:48:07.127Z,9.40
2024-05-09T17:50:37.201Z,8.95
2024-05-09T17:53:06.450Z,9.17
2024-05-09T17:55:34.818Z,9.00
2024-05-09T17:58:03.072Z,9.60
2024-05-09T18:00:37.914Z,9.40
2024-05-09T18:03:11.978Z,9.73
2024-05-09T18:05:41.542Z,8.90
2024-05-09T18:08:09.751Z,9.40
2024-05-09T18:10:39.710Z,9.50
2024-05-09T18:13:13.614Z,9.55
2024-05-09T18:15:41.675Z,10.10
2024-05-09T18:18:10.649Z,9.40
2024-05-09T18:20:43.820Z,8.60
2024-05-09T18:23:15.606Z,9.38
2024-05-09T18:25:44.570Z,9.35
2024-05-09T18:28:12.336Z,8.45
2024-05-09T18:30:40.845Z,8.33
2024-05-09T18:33:11.217Z,8.82
2024-05-09T18:35:39.453Z,8.70
2024-05-09T18:38:07.159Z,8.88
2024-05-09T18:40:37.425Z,9.63
2024-05-09T18:43:08.172Z,8.87
2024-05-09T18:45:40.236Z,8.57
2024-05-09T18:48:09.855Z,8.40
2024-05-09T18:50:40.272Z,8.43
2024-05-09T18:53:10.168Z,8.50
2024-05-09T18:55:38.355Z,7.43
2024-05-09T18:58:06.507Z,6.88
2024-05-09T19:00:37.613Z,8.38
2024-05-09T19:03:10.955Z,7.72
2024-05-09T19:05:41.644Z,8.82
2024-05-09T19:08:10.285Z,8.10
2024-05-09T19:10:39.132Z,8.20
2024-05-09T19:13:11.181Z,9.13
2024-05-09T19:15:41.627Z,7.28
2024-05-09T19:18:10.480Z,7.78
2024-05-09T19:20:38.986Z,8.23
2024-05-09T19:23:07.565Z,7.43
2024-05-09T19:25:36.372Z,6.90
2024-05-09T19:28:05.153Z,7.25
2024-05-09T19:30:39.085Z,8.07
2024-05-09T19:33:11.269Z,8.30
2024-05-09T19:35:40.155Z,8.40
2024-05-09T19:38:07.850Z,7.88
2024-05-09T19:40:36.157Z,7.70
2024-05-09T19:43:05.658Z,7.50
2024-05-09T19:45:35.525Z,8.20
2024-05-09T19:48:05.137Z,8.60
2024-05-09T19:50:41.268Z,7.82
2024-05-09T19:53:12.507Z,7.50
2024-05-09T19:55:40.710Z,7.35
2024-05-09T19:58:09.358Z,6.73
2024-05-09T20:00:39.811Z,7.15
2024-05-09T20:03:10.386Z,7.43
2024-05-09T20:05:38.984Z,7.10
2024-05-09T20:08:07.479Z,7.63
2024-05-09T20:10:36.412Z,7.47
2024-05-09T20:13:06.419Z,8.13
2024-05-09T20:15:36.416Z,8.15
2024-05-09T20:18:04.971Z,8.60
2024-05-09T20:20:38.330Z,8.45
2024-05-09T20:23:10.061Z,8.20
2024-05-09T20:25:37.896Z,7.53
2024-05-09T20:28:06.186Z,8.23
2024-05-09T20:30:35.319Z,8.52
2024-05-09T20:33:05.267Z,8.45
2024-05-09T20:35:34.853Z,7.73
2024-05-09T20:38:03.607Z,8.10
2024-05-09T20:40:35.678Z,8.10
2024-05-09T20:43:07.159Z,8.70
2024-05-09T20:45:35.908Z,9.00
2024-05-09T20:48:04.082Z,8.27
2024-05-09T20:50:37.826Z,9.75
2024-05-09T20:53:13.165Z,8.95
2024-05-09T20:55:41.898Z,9.40
2024-05-09T20:58:09.930Z,9.38
2024-05-09T21:00:41.711Z,9.73
2024-05-09T21:03:13.141Z,9.95
2024-05-09T21:05:42.004Z,9.73
2024-05-09T21:08:09.850Z,9.50
2024-05-09T21:10:37.989Z,9.98
2024-05-09T21:13:07.050Z,10.23
2024-05-09T21:15:35.976Z,10.60
2024-05-09T21:18:04.838Z,11.35
2024-05-09T21:20:34.703Z,10.48
2024-05-09T21:23:03.095Z,10.88
2024-05-09T21:25:31.910Z,11.53
2024-05-09T21:27:59.838Z,10.93
2024-05-09T21:30:37.513Z,11.35
2024-05-09T21:33:10.952Z,11.15
2024-05-09T21:35:40.338Z,11.85
2024-05-09T21:38:08.142Z,10.50
2024-05-09T21:40:37.186Z,12.00
2024-05-09T21:43:06.096Z,12.20
2024-05-09T21:45:34.279Z,11.32
2024-05-09T21:48:04.009Z,12.88
2024-05-09T21:50:38.963Z,11.27
2024-05-09T21:53:09.513Z,10.77
2024-05-09T21:55:37.307Z,11.27
2024-05-09T21:58:05.253Z,11.45
2024-05-09T22:00:37.597Z,11.98
2024-05-09T22:03:10.933Z,11.97
2024-05-09T22:05:42.058Z,12.65
2024-05-09T22:08:10.712Z,11.82
2024-05-09T22:10:38.581Z,11.23
2024-05-09T22:13:06.990Z,11.68
2024-05-09T22:15:36.406Z,12.03
2024-05-09T22:18:05.646Z,12.48
2024-05-09T22:20:37.617Z,11.30
2024-05-09T22:23:07.660Z,11.27
2024-05-09T22:25:36.323Z,11.95
2024-05-09T22:28:04.433Z,11.63
2024-05-09T22:30:37.173Z,11.80
2024-05-09T22:33:08.474Z,13.20
2024-05-09T22:35:37.191Z,11.77
2024-05-09T22:38:05.190Z,11.75
2024-05-09T22:40:42.586Z,12.07
2024-05-09T22:43:23.402Z,11.48
2024-05-09T22:45:54.283Z,11.70
2024-05-09T22:48:23.656Z,11.85
2024-05-09T22:50:52.045Z,12.50
2024-05-09T22:53:19.703Z,11.70
2024-05-09T22:55:47.332Z,12.52
2024-05-09T22:58:15.054Z,12.60
2024-05-09T23:00:43.007Z,12.85
2024-05-09T23:03:10.767Z,14.07
2024-05-09T23:05:38.645Z,13.17
2024-05-09T23:08:06.561Z,13.20
2024-05-09T23:10:37.630Z,13.25
2024-05-09T23:13:07.462Z,14.05
2024-05-09T23:15:36.538Z,14.25
2024-05-09T23:18:04.455Z,13.13
2024-05-09T23:20:37.486Z,12.23
2024-05-09T23:23:11.367Z,12.25
2024-05-09T23:25:41.658Z,13.63
2024-05-09T23:28:10.449Z,12.45
2024-05-09T23:30:40.490Z,12.10
2024-05-09T23:33:13.418Z,12.82
2024-05-09T23:35:42.394Z,12.43
2024-05-09T23:38:10.214Z,11.93
2024-05-09T23:40:40.465Z,12.68
2024-05-09T23:43:10.888Z,11.60
2024-05-09T23:45:39.251Z,9.77
2024-05-09T23:48:07.573Z,12.07
2024-05-09T23:50:38.039Z,10.50
2024-05-09T23:53:08.693Z,10.35
2024-05-09T23:55:37.736Z,10.07
2024-05-09T23:58:05.821Z,11.20
